Record high temperature 52.3°C Record low temperature -14.8°C Record high gust 66.0 kts Record high average 44.0 kts Record daily rain 221.2 mm Record low windchill -23.5°C Record high barometer 1099.9 hPa Record low barometer 815.2 hPa
Daily high pressure 1023.7 hPa Daily low pressure 1017.8 hPa Daily low windchill 11.6°C Daily high heat index 19.9°C Daily high gust speed 6.0 kts WNW Daily high average speed 6.0 kts WNW
Potts Point Sydney
LAST READING AT TIME: 18:30 DATE: 22 July 2017, time of next update: 18:40
Current WeatherClear/Clear Current Temperature 15.3°C (59.5°F), Apparent temp 14.8°C
Maximum Temperature (since 9am)19.9°C at: 14:43 Minimum Temperature (since 9am)11.6°C at: 09:08
Average windspeed (ten minute)0.0 kts (0.0 kmh) Wind Direction (ten minute)SE (135°)
Windchill Temperature 15.3°C Maximum Gust (last hour)0.6 kts (1.1 kmh) at: 17:40
Maximum Gust (since 9am)6.0 kts (11.1 kmh) at: 13:01 Maximum 1 minute average (since 9am)6.0 kts (11.1 kmh) at: 13:04
Rainfall (last hour)0.0 mm Rainfall (since 9am)0.0 mm (0.00 in.)---
Rainfall This month 5.1 mm (0.20 in.) Rainfall To date this year 634.2 mm (24.97 in.)
Maximum rain per minute (last hour)0.0 mm/min Maximum rain per hour (last 6 hours)0.0 mm/hour
Yesterdays rainfall 0.0 mm DewPoint 4.0°C (Wet Bulb :10.1°C )
Humidity 47 %, Humidex 14.3°C Barometer corrected to msl1018.3 hPa
Pressure change 0.0 hPa (last hour) Trend (last hour)STEADY
Pressure change (last 12 hours)-4.6 hPa Pressure change (last 6 hours)-1.8 hPa
Current Indoor Temp. 24.8°C
Current Indoor Hum. 32%
Current solar 0 W/mē Current UV0.0
Maximum solar (since 9am) 528 W/mē Minimum solar (since 9am)1000 W/mē
Current 04:21 hours of sunshine today, current sky: Clear/Clear
Sunshine hours for the year: 626:51 hrs Sunshine hours for the month: 79:00 hrs
Current evapotranspiration rate 3.9 mm per day. Yesterday's reading 3.2

This page is updated from recent data collected by a WS2310 weather station Use the Reload or Refresh facility on your browser to retrieve the latest data.


Animated web cam image


Weather report/warning/Metars

Sydney Airport, Australia (YSSY) 33-57S 151-11E 3M
Jul 22, 2017 - 04:00 AM EDT / 2017.07.22 0800 UTC
Wind: from the NNE (020 degrees) at 6 MPH (5 KT):0
Visibility: greater than 7 mile(s):0
Temperature: 59 F (15 C)
Dew Point: 32 F (0 C)
Relative Humidity: 35%
Pressure (altimeter): 30.06 in. Hg (1018 hPa)
ob: YSSY 220800Z 02005KT CAVOK 15/M00 Q1018 NOSIG
cycle: 8
Auckland Airport, New Zealand (NZAA) 37-01S 174-48E 6M
Jul 22, 2017 - 04:00 AM EDT / 2017.07.22 0800 UTC
Wind: from the WSW (250 degrees) at 14 MPH (12 KT):0
Visibility: greater than 7 mile(s):0
Temperature: 55 F (13 C)
Dew Point: 51 F (11 C)
Relative Humidity: 87%
Pressure (altimeter): 29.35 in. Hg (0994 hPa)
ob: NZAA 220800Z AUTO 25012KT 9999 NCD 13/11 Q0994 NOSIG
cycle: 8